createdAt,value
2022-12-01T00:01:22.905Z,101096.06
2022-12-01T00:03:49.819Z,101095.97
2022-12-01T00:06:19.622Z,101088.31
2022-12-01T00:09:07.213Z,101089.03
2022-12-01T00:11:36.007Z,101093.34
2022-12-01T00:14:03.230Z,101092.47
2022-12-01T00:16:30.590Z,101089.00
2022-12-01T00:18:57.425Z,101088.44
2022-12-01T00:21:25.857Z,101086.78
2022-12-01T00:23:54.971Z,101096.19
2022-12-01T00:26:23.132Z,101089.28
2022-12-01T00:28:54.583Z,101079.78
2022-12-01T00:31:22.054Z,101089.25
2022-12-01T00:33:48.914Z,101088.41
2022-12-01T00:36:15.739Z,101085.94
2022-12-01T00:38:42.915Z,101101.25
2022-12-01T00:41:09.752Z,101049.22
2022-12-01T00:43:36.589Z,101074.03
2022-12-01T00:46:04.073Z,101090.13
2022-12-01T00:48:31.063Z,101094.53
2022-12-01T00:50:57.780Z,101087.69
2022-12-01T00:53:24.924Z,101086.75
2022-12-01T00:55:54.152Z,101096.97
2022-12-01T00:58:22.180Z,101099.66
2022-12-01T01:00:49.915Z,101086.81
2022-12-01T01:03:16.981Z,101104.75
2022-12-01T01:05:44.180Z,101101.34
2022-12-01T01:08:13.025Z,101090.25
2022-12-01T01:10:45.388Z,101103.97
2022-12-01T01:13:13.660Z,101102.25
2022-12-01T01:15:41.424Z,101110.81
2022-12-01T01:18:09.832Z,101121.09
2022-12-01T01:20:36.740Z,101109.09
2022-12-01T01:23:03.870Z,101115.03
2022-12-01T01:25:32.773Z,101116.78
2022-12-01T01:27:59.693Z,101104.00
2022-12-01T01:30:26.693Z,101116.81
2022-12-01T01:32:53.506Z,101104.84
2022-12-01T01:35:20.272Z,101120.19
2022-12-01T01:37:47.147Z,101120.22
2022-12-01T01:40:13.942Z,101116.81
2022-12-01T01:42:40.732Z,101121.97
2022-12-01T01:45:21.410Z,101127.97
2022-12-01T01:47:50.418Z,101110.00
2022-12-01T01:50:20.582Z,101125.38
2022-12-01T01:52:53.932Z,101136.47
2022-12-01T01:55:20.902Z,101133.94
2022-12-01T01:57:47.834Z,101132.28
2022-12-01T02:00:18.430Z,101138.19
2022-12-01T02:02:47.115Z,101135.63
2022-12-01T02:05:24.665Z,101130.53
2022-12-01T02:07:53.738Z,101136.47
2022-12-01T02:10:23.224Z,101132.16
2022-12-01T02:13:16.741Z,101134.78
2022-12-01T02:16:04.906Z,101134.78
2022-12-01T02:18:52.420Z,101128.81
2022-12-01T02:21:48.379Z,101121.13
2022-12-01T02:24:36.699Z,101126.25
2022-12-01T02:27:41.942Z,101118.63
2022-12-01T02:30:12.859Z,101110.06
2022-12-01T02:33:26.215Z,101114.34
2022-12-01T02:36:13.699Z,101110.06
2022-12-01T02:39:03.011Z,101110.91
2022-12-01T02:41:38.540Z,101109.19
2022-12-01T02:44:23.864Z,101112.53
2022-12-01T02:47:14.732Z,101122.00
2022-12-01T02:49:47.311Z,101112.59
2022-12-01T02:52:15.969Z,101116.00
2022-12-01T02:54:45.300Z,101098.97
2022-12-01T02:57:14.092Z,101117.75
2022-12-01T02:59:50.100Z,101119.47
2022-12-01T03:02:43.473Z,101114.38
2022-12-01T03:05:22.773Z,101117.75
2022-12-01T03:07:55.086Z,101118.63
2022-12-01T03:10:56.252Z,101110.09
2022-12-01T03:13:41.453Z,101110.94
2022-12-01T03:16:22.650Z,101111.81
2022-12-01T03:19:00.437Z,101107.50
2022-12-01T03:21:49.272Z,101098.13
2022-12-01T03:24:21.419Z,101093.84
2022-12-01T03:26:55.619Z,101105.78
2022-12-01T03:29:27.471Z,101101.50
2022-12-01T03:32:00.232Z,101110.06
2022-12-01T03:34:49.702Z,101107.50
2022-12-01T03:37:31.579Z,101115.19
2022-12-01T03:40:01.016Z,101108.34
2022-12-01T03:42:41.619Z,101111.75
2022-12-01T03:45:15.342Z,101112.63
2022-12-01T03:47:42.259Z,101110.06
2022-12-01T03:50:14.225Z,101123.75
2022-12-01T03:53:19.455Z,101122.03
2022-12-01T03:55:52.573Z,101114.34
2022-12-01T03:58:26.339Z,101118.63
2022-12-01T04:00:55.699Z,101106.63
2022-12-01T04:03:25.293Z,101116.94
2022-12-01T04:05:52.178Z,101119.47
2022-12-01T04:08:19.050Z,101128.88
2022-12-01T04:10:45.779Z,101126.28
2022-12-01T04:13:22.344Z,101129.75
2022-12-01T04:15:53.784Z,101126.28
2022-12-01T04:18:21.574Z,101128.88
2022-12-01T04:20:50.018Z,101119.47
2022-12-01T04:23:35.464Z,101128.91
2022-12-01T04:26:04.741Z,101134.00
2022-12-01T04:28:31.791Z,101131.47
2022-12-01T04:30:58.568Z,101080.22
2022-12-01T04:33:25.475Z,101128.91
2022-12-01T04:36:01.698Z,101125.47
2022-12-01T04:38:30.831Z,101117.78
2022-12-01T04:40:58.222Z,101129.75
2022-12-01T04:43:25.098Z,101122.91
2022-12-01T04:45:51.823Z,101124.63
2022-12-01T04:48:18.521Z,101125.50
2022-12-01T04:50:45.274Z,101115.25
2022-12-01T04:53:11.937Z,101128.06
2022-12-01T04:55:39.475Z,101126.34
2022-12-01T04:58:06.977Z,101127.19
2022-12-01T05:00:34.128Z,101125.47
2022-12-01T05:03:01.376Z,101128.03
2022-12-01T05:05:28.308Z,101129.75
2022-12-01T05:07:55.269Z,101119.50
2022-12-01T05:10:22.533Z,101128.88
2022-12-01T05:12:49.826Z,101128.03
2022-12-01T05:15:17.061Z,101140.00
2022-12-01T05:17:44.052Z,101138.31
2022-12-01T05:20:38.897Z,101130.59
2022-12-01T05:23:06.524Z,101121.22
2022-12-01T05:25:34.342Z,101140.88
2022-12-01T05:28:01.213Z,101136.59
2022-12-01T05:30:28.897Z,101134.03
2022-12-01T05:32:55.872Z,101137.44
2022-12-01T05:35:22.899Z,101136.59
2022-12-01T05:45:11.739Z,101139.16
2022-12-01T05:47:38.467Z,101144.28
2022-12-01T05:50:06.206Z,101150.25
2022-12-01T05:52:36.923Z,101144.28
2022-12-01T05:55:05.045Z,101138.28
2022-12-01T05:57:32.883Z,101142.56
2022-12-01T05:59:59.965Z,101142.56
2022-12-01T06:02:29.750Z,101127.19
2022-12-01T06:04:56.563Z,101140.00
2022-12-01T06:07:25.656Z,101142.56
2022-12-01T06:09:53.243Z,101147.69
2022-12-01T06:12:20.508Z,101149.38
2022-12-01T06:14:47.270Z,101140.00
2022-12-01T06:17:13.961Z,101148.53
2022-12-01T06:19:40.667Z,101149.41
2022-12-01T06:22:07.430Z,101146.00
2022-12-01T06:24:34.101Z,101145.97
2022-12-01T06:27:00.870Z,101147.69
2022-12-01T06:29:27.555Z,101151.94
2022-12-01T06:31:54.307Z,101157.09
2022-12-01T06:34:21.019Z,101141.72
2022-12-01T06:36:47.796Z,101159.66
2022-12-01T06:39:16.110Z,101143.44
2022-12-01T06:41:43.826Z,101156.25
2022-12-01T06:44:11.427Z,101165.63
2022-12-01T06:46:38.193Z,101157.94
2022-12-01T06:49:04.983Z,101154.53
2022-12-01T06:51:33.987Z,101159.66
2022-12-01T06:54:05.228Z,101168.19
2022-12-01T06:56:32.483Z,101167.34
2022-12-01T06:58:59.750Z,101167.34
2022-12-01T07:01:26.923Z,101172.47
2022-12-01T07:03:53.708Z,101155.34
2022-12-01T07:06:20.801Z,101180.16
2022-12-01T07:08:47.468Z,101172.47
2022-12-01T07:11:16.056Z,101173.31
2022-12-01T07:13:45.528Z,101181.00
2022-12-01T07:16:13.059Z,101181.00
2022-12-01T07:18:40.714Z,101177.59
2022-12-01T07:21:10.803Z,101185.28
2022-12-01T07:23:37.630Z,101184.41
2022-12-01T07:26:07.605Z,101190.41
2022-12-01T07:28:34.597Z,101194.66
2022-12-01T07:31:08.576Z,101192.97
2022-12-01T07:33:35.596Z,101184.41
2022-12-01T07:36:03.347Z,101186.97
2022-12-01T07:38:31.701Z,101198.09
2022-12-01T07:41:10.590Z,101195.53
2022-12-01T07:43:37.901Z,101195.53
2022-12-01T07:46:05.891Z,101177.59
2022-12-01T07:48:32.663Z,101196.38
2022-12-01T07:50:59.479Z,101209.19
2022-12-01T07:53:26.339Z,101207.50
2022-12-01T07:55:53.059Z,101206.66
2022-12-01T07:58:19.862Z,101207.50
2022-12-01T08:00:46.659Z,101185.25
2022-12-01T08:03:14.038Z,101198.94
2022-12-01T08:05:40.940Z,101211.75
2022-12-01T08:08:07.762Z,101195.53
2022-12-01T08:10:34.788Z,101213.50
2022-12-01T08:13:01.588Z,101209.22
2022-12-01T08:15:28.329Z,101204.94
2022-12-01T08:17:55.228Z,101204.94
2022-12-01T08:20:24.007Z,101216.06
2022-12-01T08:22:51.044Z,101216.91
2022-12-01T08:25:17.721Z,101196.41
2022-12-01T08:27:44.434Z,101202.41
2022-12-01T08:30:11.715Z,101221.19
2022-12-01T08:32:38.386Z,101213.50
2022-12-01T08:35:05.586Z,101209.22
2022-12-01T08:37:32.278Z,101205.81
2022-12-01T08:39:58.961Z,101216.91
2022-12-01T08:42:25.740Z,101220.34
2022-12-01T08:44:52.500Z,101207.53
2022-12-01T08:47:19.668Z,101222.91
2022-12-01T08:49:46.641Z,101207.50
2022-12-01T08:52:13.589Z,101223.75
2022-12-01T08:54:40.260Z,101216.03
2022-12-01T08:57:07.348Z,101215.19
2022-12-01T08:59:34.110Z,101221.19
2022-12-01T09:02:06.665Z,101228.88
2022-12-01T09:04:33.738Z,101230.59
2022-12-01T09:07:00.717Z,101227.16
2022-12-01T09:09:29.298Z,101218.59
2022-12-01T09:11:56.521Z,101222.88
2022-12-01T09:14:23.596Z,101226.31
2022-12-01T09:16:51.306Z,101222.03
2022-12-01T09:19:24.106Z,101222.88
2022-12-01T09:21:51.711Z,101222.88
2022-12-01T09:24:18.555Z,101222.03
2022-12-01T09:26:45.225Z,101209.22
2022-12-01T09:29:15.220Z,101222.03
2022-12-01T09:31:43.364Z,101220.34
2022-12-01T09:34:18.866Z,101222.03
2022-12-01T09:36:46.603Z,101217.75
2022-12-01T09:39:18.271Z,101213.50
2022-12-01T09:41:47.245Z,101227.16
2022-12-01T09:44:22.827Z,101215.19
2022-12-01T09:46:55.264Z,101222.00
2022-12-01T09:49:44.913Z,101232.25
2022-12-01T09:52:14.603Z,101225.44
2022-12-01T09:54:41.386Z,101220.31
2022-12-01T09:57:17.670Z,101216.06
2022-12-01T09:59:46.353Z,101219.44
2022-12-01T10:02:39.560Z,101213.50
2022-12-01T10:05:14.493Z,101222.03
2022-12-01T10:07:55.439Z,101196.41
2022-12-01T10:10:34.587Z,101198.09
2022-12-01T10:13:01.701Z,101186.13
2022-12-01T10:15:37.501Z,101198.94
2022-12-01T10:18:22.832Z,101198.94
2022-12-01T10:21:19.387Z,101197.25
2022-12-01T10:24:03.501Z,101198.09
2022-12-01T10:26:37.317Z,101195.53
2022-12-01T10:29:16.620Z,101191.22
2022-12-01T10:31:46.172Z,101196.34
2022-12-01T10:34:27.147Z,101180.94
2022-12-01T10:36:53.985Z,101163.91
2022-12-01T10:39:43.961Z,101186.13
2022-12-01T10:42:27.243Z,101179.28
2022-12-01T10:44:55.524Z,101173.31
2022-12-01T10:47:25.667Z,101171.59
2022-12-01T10:49:53.144Z,101152.78
2022-12-01T10:52:26.041Z,101166.44
2022-12-01T10:54:52.759Z,101135.63
2022-12-01T10:57:19.990Z,101145.84
2022-12-01T10:59:52.356Z,101150.13
2022-12-01T11:02:26.902Z,101134.72
2022-12-01T11:05:07.586Z,101139.91
2022-12-01T11:07:47.083Z,101139.94
2022-12-01T11:10:29.387Z,101146.69
2022-12-01T11:13:01.509Z,101142.38
2022-12-01T11:15:34.059Z,101132.19
2022-12-01T11:18:03.468Z,101134.66
2022-12-01T11:20:38.682Z,101137.25
2022-12-01T11:23:26.954Z,101133.72
2022-12-01T11:26:01.542Z,101133.00
2022-12-01T11:28:28.956Z,101125.22
2022-12-01T11:30:58.590Z,101120.94
2022-12-01T11:33:26.861Z,101134.59
2022-12-01T11:35:53.981Z,101130.28
2022-12-01T11:38:29.625Z,101110.59
2022-12-01T11:40:58.307Z,101115.03
2022-12-01T11:43:30.468Z,101126.88
2022-12-01T11:46:00.134Z,101126.09
2022-12-01T11:48:30.024Z,101128.69
2022-12-01T11:51:07.782Z,101129.53
2022-12-01T11:53:36.822Z,101128.63
2022-12-01T11:56:30.514Z,101120.13
2022-12-01T11:59:12.802Z,101115.81
2022-12-01T12:01:54.764Z,101128.75
2022-12-01T12:04:33.660Z,101120.09
2022-12-01T12:07:13.346Z,101124.44
2022-12-01T12:10:18.258Z,101117.66
2022-12-01T12:13:15.793Z,101125.28
2022-12-01T12:16:16.819Z,101120.03
2022-12-01T12:18:49.467Z,101115.72
2022-12-01T12:21:31.188Z,101119.06
2022-12-01T12:24:23.708Z,101115.63
2022-12-01T12:26:56.068Z,101114.16
2022-12-01T12:29:41.626Z,101116.69
2022-12-01T12:32:14.173Z,101116.69
2022-12-01T12:34:49.837Z,101113.31
2022-12-01T12:37:20.313Z,101116.69
2022-12-01T12:40:22.510Z,101114.97
2022-12-01T12:43:07.664Z,101095.19
2022-12-01T12:46:12.764Z,101108.78
2022-12-01T12:49:19.068Z,101103.56
2022-12-01T12:51:54.540Z,101097.63
2022-12-01T12:54:33.023Z,101099.34
2022-12-01T12:57:19.461Z,101087.56
2022-12-01T13:00:02.381Z,101103.00
2022-12-01T13:02:55.368Z,101099.47
2022-12-01T13:05:36.423Z,101061.78
2022-12-01T13:08:19.153Z,101088.22
2022-12-01T13:11:04.864Z,101090.84
2022-12-01T13:13:41.242Z,101036.31
2022-12-01T13:16:15.448Z,101091.63
2022-12-01T13:18:49.085Z,101057.53
2022-12-01T13:21:19.295Z,101096.84
2022-12-01T13:23:48.603Z,101093.38
2022-12-01T13:26:19.180Z,101081.41
2022-12-01T13:28:57.633Z,101064.41
2022-12-01T13:31:25.027Z,101094.47
2022-12-01T13:33:59.566Z,101078.97
2022-12-01T13:39:23.060Z,101083.25
2022-12-01T13:42:01.764Z,101077.16
2022-12-01T13:44:41.242Z,101066.16
2022-12-01T13:47:11.154Z,101083.06
2022-12-01T13:49:40.670Z,101076.31
2022-12-01T13:52:22.399Z,101075.50
2022-12-01T13:55:07.599Z,101072.91
2022-12-01T13:57:48.789Z,101066.03
2022-12-01T14:00:34.799Z,101048.13
2022-12-01T14:03:16.970Z,101053.22
2022-12-01T14:05:43.826Z,101055.00
2022-12-01T14:08:30.459Z,101057.53
2022-12-01T14:11:04.865Z,101052.41
2022-12-01T14:13:42.461Z,101047.28
2022-12-01T14:16:10.083Z,101050.81
2022-12-01T14:18:43.075Z,101064.63
2022-12-01T14:21:12.595Z,101050.88
2022-12-01T14:23:59.782Z,101044.81
2022-12-01T14:26:29.430Z,101055.16
2022-12-01T14:28:56.152Z,101063.78
2022-12-01T14:31:24.988Z,101058.59
2022-12-01T14:34:18.790Z,101056.06
2022-12-01T14:37:06.703Z,101057.00
2022-12-01T14:39:42.803Z,101049.22
2022-12-01T14:42:56.059Z,101060.28
2022-12-01T14:45:29.522Z,101066.31
2022-12-01T14:48:02.715Z,101065.44
2022-12-01T14:50:49.295Z,101062.84
2022-12-01T14:53:18.871Z,101060.28
2022-12-01T14:55:54.546Z,101059.41
2022-12-01T14:58:26.272Z,101056.09
2022-12-01T15:00:59.619Z,101052.72
2022-12-01T15:03:32.725Z,101056.97
2022-12-01T15:05:59.515Z,101051.78
2022-12-01T15:08:58.318Z,101057.69
2022-12-01T15:11:30.388Z,101056.13
2022-12-01T15:13:58.021Z,101060.38
2022-12-01T15:16:26.967Z,101064.59
2022-12-01T15:18:53.984Z,101059.50
2022-12-01T15:21:32.193Z,101040.69
2022-12-01T15:24:04.919Z,101052.59
2022-12-01T15:26:36.182Z,101050.88
2022-12-01T15:29:18.222Z,101059.47
2022-12-01T15:31:48.743Z,101057.81
2022-12-01T15:34:23.307Z,101049.25
2022-12-01T15:36:52.353Z,101055.16
2022-12-01T15:39:41.619Z,101059.47
2022-12-01T15:42:23.665Z,101061.25
2022-12-01T15:45:20.899Z,101061.22
2022-12-01T15:47:49.983Z,101063.81
2022-12-01T15:50:39.699Z,101070.66
2022-12-01T15:53:32.945Z,101076.63
2022-12-01T15:56:02.156Z,101068.16
2022-12-01T15:58:33.066Z,101077.53
2022-12-01T16:01:11.273Z,101073.25
2022-12-01T16:03:56.312Z,101077.53
2022-12-01T16:06:28.831Z,101078.41
2022-12-01T16:09:18.835Z,101080.13
2022-12-01T16:12:07.953Z,101075.03
2022-12-01T16:14:35.588Z,101057.91
2022-12-01T16:17:03.548Z,101071.56
2022-12-01T16:19:33.041Z,101070.72
2022-12-01T16:22:05.707Z,101066.44
2022-12-01T16:24:51.174Z,101069.88
2022-12-01T16:27:27.160Z,101063.84
2022-12-01T16:29:55.070Z,101069.00
2022-12-01T16:32:30.778Z,101071.56
2022-12-01T16:34:57.727Z,101067.31
2022-12-01T16:37:24.926Z,101068.19
2022-12-01T16:39:51.671Z,101069.88
2022-12-01T16:42:21.263Z,101075.00
2022-12-01T16:44:48.921Z,101078.41
2022-12-01T16:47:25.658Z,101071.59
2022-12-01T16:49:53.284Z,101075.91
2022-12-01T16:55:38.620Z,101077.63
2022-12-01T16:58:05.428Z,101070.78
2022-12-01T17:00:32.514Z,101075.91
2022-12-01T17:02:59.702Z,101034.94
2022-12-01T17:05:26.779Z,101065.69
2022-12-01T17:07:54.127Z,101079.34
2022-12-01T17:10:22.306Z,101054.63
2022-12-01T17:12:49.259Z,101075.06
2022-12-01T17:15:16.064Z,101089.59
2022-12-01T17:17:43.261Z,101075.91
2022-12-01T17:20:10.682Z,101084.50
2022-12-01T17:22:37.946Z,101081.91
2022-12-01T17:25:05.678Z,101074.22
2022-12-01T17:27:32.849Z,101095.59
2022-12-01T17:29:59.605Z,101087.03
2022-12-01T17:32:27.552Z,101098.13
2022-12-01T17:34:54.834Z,101090.47
2022-12-01T17:37:21.630Z,101093.84
2022-12-01T17:39:48.628Z,101067.41
2022-12-01T17:42:15.667Z,101104.13
2022-12-01T17:44:43.150Z,101104.13
2022-12-01T17:47:09.966Z,101104.97
2022-12-01T17:49:36.859Z,101074.22
2022-12-01T17:52:07.081Z,101104.13
2022-12-01T17:54:33.899Z,101100.69
2022-12-01T17:57:00.633Z,101094.75
2022-12-01T17:59:27.569Z,101107.53
2022-12-01T18:01:54.320Z,101099.84
2022-12-01T18:04:21.107Z,101099.00
2022-12-01T18:06:53.575Z,101104.13
2022-12-01T18:09:21.428Z,101101.56
2022-12-01T18:11:48.421Z,101104.13
2022-12-01T18:14:17.917Z,101093.03
2022-12-01T18:16:45.714Z,101096.44
2022-12-01T18:19:12.786Z,101094.72
2022-12-01T18:21:40.321Z,101085.34
2022-12-01T18:24:09.045Z,101087.91
2022-12-01T18:26:37.567Z,101084.50
2022-12-01T18:29:16.807Z,101084.47
2022-12-01T18:31:43.744Z,101080.22
2022-12-01T18:34:11.875Z,101077.63
2022-12-01T18:36:40.354Z,101092.16
2022-12-01T18:39:09.468Z,101097.31
2022-12-01T18:41:36.428Z,101087.03
2022-12-01T18:44:03.910Z,101093.88
2022-12-01T18:46:30.846Z,101087.88
2022-12-01T18:49:03.105Z,101086.19
2022-12-01T18:51:31.408Z,101087.06
2022-12-01T18:53:59.881Z,101081.06
2022-12-01T18:56:27.510Z,101083.63
2022-12-01T18:58:59.506Z,101069.97
2022-12-01T19:01:36.109Z,101076.81
2022-12-01T19:04:03.901Z,101087.91
2022-12-01T19:06:31.473Z,101040.94
2022-12-01T19:09:01.328Z,101072.50
2022-12-01T19:11:29.062Z,101073.38
2022-12-01T19:13:57.145Z,101056.28
2022-12-01T19:16:25.076Z,101059.72
2022-12-01T19:18:52.661Z,101075.06
2022-12-01T19:21:20.778Z,101070.81
2022-12-01T19:23:48.983Z,101062.25
2022-12-01T19:26:19.579Z,101075.09
2022-12-01T19:28:48.394Z,101074.22
2022-12-01T19:31:19.274Z,101051.19
2022-12-01T19:33:48.500Z,101074.22
2022-12-01T19:36:18.692Z,101079.38
2022-12-01T19:38:46.386Z,101069.09
2022-12-01T19:41:15.108Z,101069.97
2022-12-01T19:43:43.351Z,101081.91
2022-12-01T19:46:14.099Z,101075.91
2022-12-01T19:48:41.481Z,101066.53
2022-12-01T19:51:16.475Z,101075.09
2022-12-01T19:53:43.349Z,101072.50
2022-12-01T19:56:10.306Z,101076.78
2022-12-01T19:58:37.066Z,101028.97
2022-12-01T20:01:05.094Z,101063.97
2022-12-01T20:03:32.218Z,101075.94
2022-12-01T20:06:11.127Z,101076.78
2022-12-01T20:08:39.385Z,101068.25
2022-12-01T20:11:07.657Z,101069.94
2022-12-01T20:13:40.865Z,101068.25
2022-12-01T20:16:14.112Z,101068.25
2022-12-01T20:18:42.615Z,101066.53
2022-12-01T20:21:17.791Z,101053.72
2022-12-01T20:23:50.580Z,101063.13
2022-12-01T20:26:20.182Z,101052.88
2022-12-01T20:28:53.494Z,101055.44
2022-12-01T20:31:25.153Z,101062.25
2022-12-01T20:33:55.188Z,101060.56
2022-12-01T20:36:26.327Z,101058.00
2022-12-01T20:38:54.578Z,101040.91
2022-12-01T20:41:22.657Z,101048.59
2022-12-01T20:43:53.512Z,101052.84
2022-12-01T20:46:20.881Z,101053.69
2022-12-01T20:48:48.580Z,101052.88
2022-12-01T20:51:18.263Z,101044.28
2022-12-01T20:54:05.386Z,101053.72
2022-12-01T20:56:33.749Z,101052.88
2022-12-01T20:59:01.064Z,101043.47
2022-12-01T21:01:27.865Z,101049.44
2022-12-01T21:03:54.780Z,101051.19
2022-12-01T21:06:22.333Z,101046.88
2022-12-01T21:08:50.501Z,101057.13
2022-12-01T21:11:44.620Z,101052.88
2022-12-01T21:14:19.713Z,101048.59
2022-12-01T21:16:49.333Z,101049.47
2022-12-01T21:19:36.952Z,101011.91
2022-12-01T21:22:10.391Z,101051.16
2022-12-01T21:24:43.330Z,101046.91
2022-12-01T21:27:15.922Z,101038.34
2022-12-01T21:29:46.143Z,101037.50
2022-12-01T21:32:29.135Z,101036.66
2022-12-01T21:35:09.021Z,101035.78
2022-12-01T21:37:35.708Z,101048.59
2022-12-01T21:40:02.413Z,101037.53
2022-12-01T21:42:31.814Z,101041.78
2022-12-01T21:44:58.745Z,101036.63
2022-12-01T21:47:30.894Z,101043.47
2022-12-01T21:50:00.102Z,101049.47
2022-12-01T21:52:37.562Z,101047.75
2022-12-01T21:55:24.444Z,101035.81
2022-12-01T21:57:52.950Z,101050.31
2022-12-01T22:00:28.909Z,101040.94
2022-12-01T22:03:04.941Z,101046.03
2022-12-01T22:05:38.041Z,101034.94
2022-12-01T22:08:07.872Z,101045.19
2022-12-01T22:11:11.171Z,101050.31
2022-12-01T22:13:48.273Z,101046.06
2022-12-01T22:16:20.842Z,101040.94
2022-12-01T22:18:54.933Z,101039.22
2022-12-01T22:21:35.198Z,101038.34
2022-12-01T22:24:14.692Z,101035.78
2022-12-01T22:26:47.911Z,101035.78
2022-12-01T22:29:32.170Z,101034.09
2022-12-01T22:32:13.850Z,101028.09
2022-12-01T22:34:45.819Z,101023.84
2022-12-01T22:37:45.393Z,101034.09
2022-12-01T22:40:33.832Z,101038.38
2022-12-01T22:43:19.690Z,101040.09
2022-12-01T22:45:48.995Z,101034.09
2022-12-01T22:48:27.741Z,101032.41
2022-12-01T22:50:55.183Z,101031.50
2022-12-01T22:53:29.961Z,101025.56
2022-12-01T22:56:00.107Z,101030.69
2022-12-01T22:58:38.725Z,101031.53
2022-12-01T23:01:19.644Z,101022.16
2022-12-01T23:03:46.353Z,101025.53
2022-12-01T23:06:52.213Z,101023.84
2022-12-01T23:09:20.253Z,101017.88
2022-12-01T23:11:54.532Z,101017.03
2022-12-01T23:14:23.482Z,101022.97
2022-12-01T23:16:57.339Z,101005.91
2022-12-01T23:19:25.380Z,101012.72
2022-12-01T23:21:52.778Z,101013.59
2022-12-01T23:24:19.530Z,100998.25
2022-12-01T23:26:47.112Z,101006.78
2022-12-01T23:29:13.935Z,100996.53
2022-12-01T23:31:41.159Z,101004.22
2022-12-01T23:34:14.029Z,101002.53
2022-12-01T23:36:41.519Z,100999.09
2022-12-01T23:39:13.702Z,100990.56
2022-12-01T23:41:45.279Z,100995.69
2022-12-01T23:44:26.672Z,100994.81
2022-12-01T23:46:56.390Z,100982.84
2022-12-01T23:49:28.991Z,100980.28
2022-12-01T23:51:59.072Z,100976.88
2022-12-01T23:54:32.286Z,100972.63
2022-12-01T23:57:02.741Z,100971.78
2022-12-01T23:59:31.629Z,100964.06
